Time;durP1;ratioP1;P1;durP2;ratioP2;P2;SDS_P1;SDS_P2;PMS_P1;PMS_P2;Temp;Humidity;BMP_temperature;BMP_pressure;BME280_temperature;BME280_humidity;BME280_pressure;Samples;Min_cycle;Max_cycle;Signal;HPM_P1;HPM_P2
2023/03/10 00:00:45;;;;;;;6.10;1.70;;;;;;;;;;5092406;28;20666;-84
2023/03/10 00:03:12;;;;;;;5.25;1.63;;;;;;;;;;5092385;28;20048;-84
2023/03/10 00:05:40;;;;;;;10.05;2.20;;;;;;;;;;5074373;28;20498;-83
2023/03/10 00:08:07;;;;;;;7.55;2.05;;;;;;;;;;5092197;28;20044;-82
2023/03/10 00:10:34;;;;;;;7.43;1.65;;;;;;;;;;5092339;28;20048;-83
2023/03/10 00:13:01;;;;;;;6.90;1.70;;;;;;;;;;5074503;28;20145;-83
2023/03/10 00:15:30;;;;;;;9.45;2.35;;;;;;;;;;5094198;28;20506;-84
2023/03/10 00:17:57;;;;;;;6.25;1.52;;;;;;;;;;5095955;28;20056;-84
2023/03/10 00:20:25;;;;;;;7.45;1.65;;;;;;;;;;5095834;28;20055;-83
2023/03/10 00:22:52;;;;;;;6.72;1.50;;;;;;;;;;5077728;28;20138;-83
2023/03/10 00:25:19;;;;;;;6.22;1.77;;;;;;;;;;5095450;28;20483;-84
2023/03/10 00:27:46;;;;;;;6.18;1.77;;;;;;;;;;5077511;28;20582;-83
2023/03/10 00:30:14;;;;;;;8.63;2.20;;;;;;;;;;5095325;28;20423;-83
2023/03/10 00:32:41;;;;;;;8.30;1.80;;;;;;;;;;5095397;28;20415;-83
2023/03/10 00:35:08;;;;;;;8.80;1.85;;;;;;;;;;5095608;28;20051;-84
2023/03/10 00:37:37;;;;;;;7.85;1.70;;;;;;;;;;5095050;28;20080;-84
2023/03/10 00:40:13;;;;;;;10.30;2.03;;;;;;;;;;5077544;28;20428;-83
2023/03/10 00:42:40;;;;;;;7.07;1.73;;;;;;;;;;5077772;28;20047;-84
2023/03/10 00:45:08;;;;;;;7.43;1.70;;;;;;;;;;5077450;28;20428;-84
2023/03/10 00:47:35;;;;;;;8.82;1.55;;;;;;;;;;5095147;28;20080;-84
2023/03/10 00:50:03;;;;;;;5.72;1.38;;;;;;;;;;5095419;28;20044;-83
2023/03/10 00:52:31;;;;;;;6.10;1.50;;;;;;;;;;5077411;28;20399;-84
2023/03/10 00:55:00;;;;;;;6.65;1.70;;;;;;;;;;5077075;28;20048;-84
2023/03/10 00:57:27;;;;;;;7.18;1.42;;;;;;;;;;5095188;28;20822;-83
2023/03/10 00:59:54;;;;;;;5.47;1.70;;;;;;;;;;5095435;28;20128;-84
2023/03/10 01:02:22;;;;;;;8.45;1.58;;;;;;;;;;5077095;28;20075;-84
2023/03/10 01:04:49;;;;;;;4.95;1.63;;;;;;;;;;5077145;28;20415;-84
2023/03/10 01:07:16;;;;;;;4.88;1.50;;;;;;;;;;5095253;28;20559;-84
2023/03/10 01:09:43;;;;;;;9.93;2.05;;;;;;;;;;5077100;28;20047;-84
2023/03/10 01:12:11;;;;;;;7.50;2.10;;;;;;;;;;5077139;28;20048;-84
2023/03/10 01:14:38;;;;;;;6.75;1.85;;;;;;;;;;5094678;28;20058;-84
2023/03/10 01:17:05;;;;;;;11.93;1.83;;;;;;;;;;5077059;28;20051;-84
2023/03/10 01:19:32;;;;;;;7.25;2.00;;;;;;;;;;5076972;28;20480;-83
2023/03/10 01:22:00;;;;;;;9.90;1.85;;;;;;;;;;5094626;28;20050;-83
2023/03/10 01:24:27;;;;;;;7.05;1.73;;;;;;;;;;5076682;28;20087;-83
2023/03/10 01:26:54;;;;;;;6.07;1.40;;;;;;;;;;5075664;28;20132;-83
2023/03/10 01:29:21;;;;;;;5.00;1.33;;;;;;;;;;5076694;28;20059;-84
2023/03/10 01:31:48;;;;;;;4.78;1.45;;;;;;;;;;5076476;28;20060;-83
2023/03/10 01:34:16;;;;;;;7.53;1.70;;;;;;;;;;5094227;28;20482;-84
2023/03/10 01:36:43;;;;;;;6.70;1.40;;;;;;;;;;5076478;28;20047;-84
2023/03/10 01:39:10;;;;;;;8.80;2.05;;;;;;;;;;5076510;28;20131;-83
2023/03/10 01:41:38;;;;;;;5.72;1.70;;;;;;;;;;5076314;28;20052;-84
2023/03/10 01:44:12;;;;;;;3.83;1.52;;;;;;;;;;5076156;28;20052;-83
2023/03/10 01:46:44;;;;;;;5.28;1.35;;;;;;;;;;5094521;28;20052;-83
2023/03/10 01:49:11;;;;;;;8.15;2.03;;;;;;;;;;5094210;28;20052;-83
2023/03/10 01:51:40;;;;;;;8.90;1.95;;;;;;;;;;5094021;28;20059;-83
2023/03/10 01:54:10;;;;;;;6.07;1.20;;;;;;;;;;5094038;28;20052;-84
2023/03/10 01:56:38;;;;;;;5.70;1.40;;;;;;;;;;5075942;28;20048;-83
2023/03/10 01:59:05;;;;;;;8.10;1.65;;;;;;;;;;5075955;28;20407;-84
2023/03/10 02:01:33;;;;;;;4.47;1.50;;;;;;;;;;5075909;28;20052;-82
2023/03/10 02:04:01;;;;;;;5.75;1.65;;;;;;;;;;5093777;28;20056;-84
2023/03/10 02:06:28;;;;;;;6.00;1.45;;;;;;;;;;5075481;28;20048;-83
2023/03/10 02:08:57;;;;;;;7.25;1.58;;;;;;;;;;5075577;28;20040;-83
2023/03/10 02:11:25;;;;;;;6.63;1.42;;;;;;;;;;5075713;28;20055;-84
2023/03/10 02:13:52;;;;;;;7.95;1.50;;;;;;;;;;5075511;28;20048;-83
2023/03/10 02:16:21;;;;;;;6.85;1.67;;;;;;;;;;5093419;28;20097;-83
2023/03/10 02:18:49;;;;;;;7.78;1.30;;;;;;;;;;5075666;28;20441;-84
2023/03/10 02:21:23;;;;;;;3.78;1.40;;;;;;;;;;5075295;28;20044;-83
2023/03/10 02:24:02;;;;;;;4.97;1.52;;;;;;;;;;5075644;28;20044;-83
2023/03/10 02:26:39;;;;;;;9.32;1.80;;;;;;;;;;5075382;28;20127;-83
2023/03/10 02:29:09;;;;;;;5.15;1.40;;;;;;;;;;5093228;28;20423;-83
2023/03/10 02:31:36;;;;;;;4.20;1.70;;;;;;;;;;5075261;28;20051;-83
2023/03/10 02:34:05;;;;;;;4.28;1.75;;;;;;;;;;5092869;28;20455;-83
2023/03/10 02:36:32;;;;;;;7.13;1.45;;;;;;;;;;5091949;28;20059;-84
2023/03/10 02:39:00;;;;;;;5.43;1.67;;;;;;;;;;5093011;28;20094;-84
2023/03/10 02:41:31;;;;;;;4.20;1.20;;;;;;;;;;5075231;28;20047;-84
2023/03/10 02:44:00;;;;;;;3.38;1.20;;;;;;;;;;5075295;28;20445;-83
2023/03/10 02:46:28;;;;;;;5.70;1.40;;;;;;;;;;5074963;28;20044;-84
2023/03/10 02:48:58;;;;;;;4.13;1.20;;;;;;;;;;5092917;28;20054;-84
2023/03/10 02:51:37;;;;;;;7.03;1.20;;;;;;;;;;5075000;28;20126;-84
2023/03/10 02:54:04;;;;;;;2.67;1.25;;;;;;;;;;5093069;28;20048;-83
2023/03/10 02:56:33;;;;;;;4.15;1.27;;;;;;;;;;5074919;28;20488;-83
2023/03/10 02:59:00;;;;;;;5.97;1.65;;;;;;;;;;5074511;28;20048;-84
2023/03/10 03:01:29;;;;;;;2.40;0.93;;;;;;;;;;5075121;28;20048;-84
2023/03/10 03:03:56;;;;;;;3.50;1.25;;;;;;;;;;5074947;28;20078;-84
2023/03/10 03:06:24;;;;;;;2.50;1.08;;;;;;;;;;5074411;28;20146;-84
2023/03/10 03:08:51;;;;;;;4.00;1.40;;;;;;;;;;5092811;28;20048;-84
2023/03/10 03:11:19;;;;;;;5.88;1.70;;;;;;;;;;5092698;28;20063;-83
2023/03/10 03:13:46;;;;;;;3.10;0.90;;;;;;;;;;5074758;28;20048;-84
2023/03/10 03:16:13;;;;;;;5.47;1.35;;;;;;;;;;5074750;28;20127;-83
2023/03/10 03:18:40;;;;;;;4.47;1.10;;;;;;;;;;5092568;28;20091;-84
2023/03/10 03:21:09;;;;;;;3.85;1.08;;;;;;;;;;5092734;28;20491;-83
2023/03/10 03:23:38;;;;;;;2.45;0.70;;;;;;;;;;5074743;28;20399;-83
2023/03/10 03:26:05;;;;;;;3.33;1.00;;;;;;;;;;5092394;28;20055;-83
2023/03/10 03:28:32;;;;;;;2.17;0.75;;;;;;;;;;5074924;28;20048;-83
2023/03/10 03:31:00;;;;;;;7.15;1.23;;;;;;;;;;5092437;28;20052;-83
2023/03/10 03:33:28;;;;;;;3.17;1.20;;;;;;;;;;5074338;28;20139;-84
2023/03/10 03:35:55;;;;;;;1.92;0.60;;;;;;;;;;5092707;28;20054;-84
2023/03/10 03:38:22;;;;;;;2.50;0.88;;;;;;;;;;5092391;28;20056;-84
2023/03/10 03:40:49;;;;;;;3.95;0.80;;;;;;;;;;5092804;28;20044;-83
2023/03/10 03:43:16;;;;;;;4.30;0.77;;;;;;;;;;5074537;28;20048;-83
2023/03/10 03:45:43;;;;;;;3.33;0.75;;;;;;;;;;5074091;28;20055;-83
2023/03/10 03:48:13;;;;;;;0.82;0.70;;;;;;;;;;5074749;28;20457;-83
2023/03/10 03:50:40;;;;;;;4.40;0.82;;;;;;;;;;5076959;28;20054;-83
2023/03/10 03:53:07;;;;;;;3.97;0.70;;;;;;;;;;5078379;28;20048;-83
2023/03/10 03:55:34;;;;;;;2.45;0.68;;;;;;;;;;5096178;28;20059;-83
2023/03/10 03:58:02;;;;;;;2.40;0.80;;;;;;;;;;5096191;28;20407;-82
2023/03/10 04:00:29;;;;;;;3.65;0.63;;;;;;;;;;5077923;28;20496;-82
2023/03/10 04:02:56;;;;;;;2.08;0.47;;;;;;;;;;5096317;28;20470;-82
2023/03/10 04:05:23;;;;;;;2.25;0.50;;;;;;;;;;5095375;28;20139;-82
2023/03/10 04:07:51;;;;;;;3.03;1.10;;;;;;;;;;5078209;28;20048;-83
2023/03/10 04:10:19;;;;;;;1.77;0.60;;;;;;;;;;5078142;28;20050;-83
2023/03/10 04:12:47;;;;;;;1.10;0.43;;;;;;;;;;5095611;28;20134;-82
2023/03/10 04:15:14;;;;;;;0.68;0.52;;;;;;;;;;5095749;28;20384;-83
2023/03/10 04:17:41;;;;;;;0.73;0.45;;;;;;;;;;5095871;28;20056;-82
2023/03/10 04:20:11;;;;;;;0.65;0.40;;;;;;;;;;5095508;28;20051;-83
2023/03/10 04:22:39;;;;;;;0.90;0.38;;;;;;;;;;5077780;28;20075;-82
2023/03/10 04:25:07;;;;;;;0.85;0.40;;;;;;;;;;5095387;28;20507;-82
2023/03/10 04:27:34;;;;;;;0.95;0.50;;;;;;;;;;5077572;28;20139;-83
2023/03/10 04:30:02;;;;;;;1.40;0.30;;;;;;;;;;5077633;28;20494;-83
2023/03/10 04:32:29;;;;;;;0.75;0.40;;;;;;;;;;5095131;28;20084;-82
2023/03/10 04:34:56;;;;;;;1.02;0.68;;;;;;;;;;5076580;28;20102;-83
2023/03/10 04:37:23;;;;;;;0.60;0.22;;;;;;;;;;5094409;28;20123;-83
2023/03/10 04:39:50;;;;;;;0.50;0.20;;;;;;;;;;5076901;28;20136;-83
2023/03/10 04:42:18;;;;;;;0.95;0.20;;;;;;;;;;5094259;28;20420;-83
2023/03/10 04:44:45;;;;;;;0.73;0.43;;;;;;;;;;5076062;28;20066;-83
2023/03/10 04:47:12;;;;;;;1.55;0.30;;;;;;;;;;5094260;28;20055;-83
2023/03/10 04:49:40;;;;;;;0.20;0.20;;;;;;;;;;5076381;28;20059;-83
2023/03/10 04:52:07;;;;;;;1.90;0.45;;;;;;;;;;5093840;28;20051;-82
2023/03/10 04:54:34;;;;;;;0.47;0.20;;;;;;;;;;5075923;28;20056;-83
2023/03/10 04:57:02;;;;;;;0.73;0.40;;;;;;;;;;5093860;28;20127;-81
2023/03/10 04:59:29;;;;;;;0.65;0.30;;;;;;;;;;5076087;28;20210;-83
2023/03/10 05:01:56;;;;;;;1.23;0.45;;;;;;;;;;5094118;28;20136;-83
2023/03/10 05:04:23;;;;;;;0.35;0.35;;;;;;;;;;5093816;28;20044;-83
2023/03/10 05:06:51;;;;;;;0.77;0.20;;;;;;;;;;5075758;28;20052;-82
2023/03/10 05:09:18;;;;;;;1.45;0.30;;;;;;;;;;5093874;28;20044;-82
2023/03/10 05:11:45;;;;;;;1.00;0.10;;;;;;;;;;5093774;28;20048;-84
2023/03/10 05:14:13;;;;;;;2.35;0.20;;;;;;;;;;5075608;28;20101;-83
2023/03/10 05:16:40;;;;;;;0.38;0.38;;;;;;;;;;5093254;28;20075;-82
2023/03/10 05:19:07;;;;;;;1.63;0.30;;;;;;;;;;5093296;28;20523;-82
2023/03/10 05:21:35;;;;;;;0.30;0.20;;;;;;;;;;5075555;28;20143;-84
2023/03/10 05:24:02;;;;;;;0.22;0.20;;;;;;;;;;5075895;28;20467;-83
2023/03/10 05:26:29;;;;;;;0.45;0.30;;;;;;;;;;5093502;28;20047;-84
2023/03/10 05:29:00;;;;;;;0.63;0.20;;;;;;;;;;5076340;28;20044;-83
2023/03/10 05:31:27;;;;;;;0.60;0.30;;;;;;;;;;5093391;28;20109;-83
2023/03/10 05:33:55;;;;;;;0.20;0.20;;;;;;;;;;5051625;28;1210672;-84
2023/03/10 05:36:22;;;;;;;1.83;0.30;;;;;;;;;;5094338;28;20056;-84
2023/03/10 05:38:50;;;;;;;0.40;0.38;;;;;;;;;;5076668;28;20047;-84
2023/03/10 05:41:17;;;;;;;1.98;1.75;;;;;;;;;;5076840;28;20484;-83
2023/03/10 05:43:44;;;;;;;0.40;0.40;;;;;;;;;;5076243;28;20041;-84
2023/03/10 05:46:12;;;;;;;0.30;0.17;;;;;;;;;;5076084;28;20078;-85
2023/03/10 05:48:39;;;;;;;1.23;0.30;;;;;;;;;;5094062;28;20048;-85
2023/03/10 05:51:08;;;;;;;0.28;0.15;;;;;;;;;;5094169;28;20044;-84
2023/03/10 05:53:36;;;;;;;0.10;0.10;;;;;;;;;;5076184;28;20047;-84
2023/03/10 05:56:11;;;;;;;0.13;0.13;;;;;;;;;;5076100;28;20203;-85
2023/03/10 05:58:38;;;;;;;0.20;0.20;;;;;;;;;;5076021;28;20050;-85
2023/03/10 06:01:06;;;;;;;2.50;0.25;;;;;;;;;;5076029;28;20055;-84
2023/03/10 06:03:34;;;;;;;0.82;0.28;;;;;;;;;;5076040;28;20055;-87
2023/03/10 06:06:01;;;;;;;1.45;0.40;;;;;;;;;;5075704;28;20557;-87
2023/03/10 06:08:29;;;;;;;2.05;0.35;;;;;;;;;;5076383;28;20457;-85
2023/03/10 06:10:59;;;;;;;1.27;0.50;;;;;;;;;;5076311;28;20055;-85
2023/03/10 06:13:26;;;;;;;0.65;0.28;;;;;;;;;;5075168;28;20040;-85
2023/03/10 06:15:57;;;;;;;1.42;0.60;;;;;;;;;;5093727;28;20139;-85
2023/03/10 06:18:25;;;;;;;0.60;0.43;;;;;;;;;;5076025;28;20063;-84
2023/03/10 06:20:52;;;;;;;0.73;0.47;;;;;;;;;;5093608;28;20519;-85
2023/03/10 06:23:20;;;;;;;0.90;0.43;;;;;;;;;;5075802;28;20044;-85
2023/03/10 06:26:01;;;;;;;0.30;0.30;;;;;;;;;;5075508;28;20054;-86
2023/03/10 06:28:32;;;;;;;0.70;0.60;;;;;;;;;;5093459;28;20418;-85
2023/03/10 06:31:00;;;;;;;1.50;0.55;;;;;;;;;;5075691;28;20118;-85
2023/03/10 06:33:28;;;;;;;0.85;0.40;;;;;;;;;;5075195;28;20048;-84
2023/03/10 06:35:55;;;;;;;0.52;0.40;;;;;;;;;;5075509;28;20048;-85
2023/03/10 06:38:22;;;;;;;0.70;0.40;;;;;;;;;;5093283;28;20117;-84
2023/03/10 06:40:50;;;;;;;1.38;0.70;;;;;;;;;;5093212;28;20059;-81
2023/03/10 06:43:17;;;;;;;1.98;0.50;;;;;;;;;;5075460;28;20066;-82
2023/03/10 06:45:45;;;;;;;1.95;0.45;;;;;;;;;;5075126;28;20067;-83
2023/03/10 06:48:12;;;;;;;0.85;0.73;;;;;;;;;;5075382;28;20055;-82
2023/03/10 06:50:41;;;;;;;0.75;0.60;;;;;;;;;;5074998;28;20048;-84
2023/03/10 06:53:08;;;;;;;2.67;0.52;;;;;;;;;;5092857;28;20052;-83
2023/03/10 06:55:36;;;;;;;1.90;0.52;;;;;;;;;;5092746;28;20044;-83
2023/03/10 06:58:03;;;;;;;1.85;1.00;;;;;;;;;;5070787;28;20048;-83
2023/03/10 07:00:30;;;;;;;1.92;0.57;;;;;;;;;;5072892;28;20055;-82
2023/03/10 07:02:58;;;;;;;1.75;0.65;;;;;;;;;;5055074;28;20048;-82
2023/03/10 07:05:26;;;;;;;1.83;0.60;;;;;;;;;;5072335;28;20051;-82
2023/03/10 07:07:54;;;;;;;1.98;0.70;;;;;;;;;;5054943;28;20059;-82
2023/03/10 07:10:21;;;;;;;4.10;0.68;;;;;;;;;;5072466;28;20500;-83
2023/03/10 07:12:53;;;;;;;1.58;0.40;;;;;;;;;;5055122;28;20401;-83
2023/03/10 07:15:25;;;;;;;2.42;0.73;;;;;;;;;;5072467;28;20048;-82
2023/03/10 07:17:55;;;;;;;3.72;0.50;;;;;;;;;;5072410;28;20127;-86
2023/03/10 07:20:23;;;;;;;2.47;0.60;;;;;;;;;;5054393;28;20552;-82
2023/03/10 07:22:50;;;;;;;2.85;0.65;;;;;;;;;;5054765;28;20048;-81
2023/03/10 07:25:17;;;;;;;3.20;0.93;;;;;;;;;;5056553;28;20059;-82
2023/03/10 07:27:45;;;;;;;3.60;0.82;;;;;;;;;;5058681;28;20491;-82
2023/03/10 07:30:12;;;;;;;2.45;0.63;;;;;;;;;;5076519;28;20041;-82
2023/03/10 07:32:39;;;;;;;1.33;0.70;;;;;;;;;;5075892;28;20052;-82
2023/03/10 07:35:07;;;;;;;3.75;0.93;;;;;;;;;;5058698;28;20055;-82
2023/03/10 07:37:37;;;;;;;2.13;0.50;;;;;;;;;;5058453;28;20055;-82
2023/03/10 07:40:05;;;;;;;1.80;0.60;;;;;;;;;;5076395;28;20071;-83
2023/03/10 07:42:32;;;;;;;2.95;1.10;;;;;;;;;;5076190;28;20048;-82
2023/03/10 07:45:00;;;;;;;5.32;0.70;;;;;;;;;;5058283;28;20054;-82
2023/03/10 07:47:27;;;;;;;3.75;0.75;;;;;;;;;;5075891;28;20056;-82
2023/03/10 07:49:54;;;;;;;1.77;1.27;;;;;;;;;;5076279;28;20131;-82
2023/03/10 07:52:21;;;;;;;3.10;0.70;;;;;;;;;;5058326;28;20082;-82
2023/03/10 07:54:48;;;;;;;4.95;0.80;;;;;;;;;;5057702;28;20142;-81
2023/03/10 07:57:16;;;;;;;3.95;0.70;;;;;;;;;;5075644;28;20143;-83
2023/03/10 07:59:43;;;;;;;2.17;0.85;;;;;;;;;;5075594;28;20055;-82
2023/03/10 08:02:11;;;;;;;2.42;0.73;;;;;;;;;;5057882;28;20067;-82
2023/03/10 08:04:39;;;;;;;4.32;0.90;;;;;;;;;;5075770;28;20143;-82
2023/03/10 08:07:07;;;;;;;2.78;0.90;;;;;;;;;;5058216;28;20049;-82
2023/03/10 08:09:34;;;;;;;2.42;0.70;;;;;;;;;;5075820;28;20059;-83
2023/03/10 08:12:02;;;;;;;0.93;0.68;;;;;;;;;;5075820;28;20482;-82
2023/03/10 08:14:30;;;;;;;4.22;0.75;;;;;;;;;;5057222;28;20526;-82
2023/03/10 08:16:57;;;;;;;3.25;1.40;;;;;;;;;;5058100;28;20136;-85
2023/03/10 08:19:25;;;;;;;2.67;1.20;;;;;;;;;;5057598;28;20044;-82
2023/03/10 08:21:56;;;;;;;2.42;1.02;;;;;;;;;;5075697;28;20048;-82
2023/03/10 08:24:24;;;;;;;3.40;0.75;;;;;;;;;;5075400;28;20044;-82
2023/03/10 08:26:51;;;;;;;2.88;0.60;;;;;;;;;;5057403;28;20131;-82
2023/03/10 08:29:18;;;;;;;2.67;0.60;;;;;;;;;;5057659;28;20082;-82
2023/03/10 08:31:46;;;;;;;3.05;0.95;;;;;;;;;;5075284;28;20055;-82
2023/03/10 08:34:14;;;;;;;8.80;1.00;;;;;;;;;;5074255;28;20059;-83
2023/03/10 08:36:42;;;;;;;3.20;0.93;;;;;;;;;;5054998;28;20047;-83
2023/03/10 08:39:10;;;;;;;2.58;0.75;;;;;;;;;;5074137;28;20075;-82
2023/03/10 08:41:40;;;;;;;2.92;1.02;;;;;;;;;;5074913;28;20385;-82
2023/03/10 08:44:10;;;;;;;3.78;0.77;;;;;;;;;;5057164;28;20058;-81
2023/03/10 08:46:38;;;;;;;3.83;0.70;;;;;;;;;;5057313;28;20052;-82
2023/03/10 08:49:05;;;;;;;4.50;0.70;;;;;;;;;;5075104;28;20473;-81
2023/03/10 08:51:32;;;;;;;5.07;0.90;;;;;;;;;;5057352;28;20404;-82
2023/03/10 08:54:00;;;;;;;3.35;1.10;;;;;;;;;;5057189;28;20040;-83
2023/03/10 08:56:28;;;;;;;2.40;0.70;;;;;;;;;;5074742;28;20141;-83
2023/03/10 08:58:57;;;;;;;3.38;0.80;;;;;;;;;;5074968;28;20048;-83
2023/03/10 09:01:26;;;;;;;4.15;1.15;;;;;;;;;;5056936;28;20071;-82
2023/03/10 09:03:53;;;;;;;4.90;1.52;;;;;;;;;;5057243;28;20044;-82
2023/03/10 09:06:21;;;;;;;3.00;1.00;;;;;;;;;;5074436;28;20052;-82
2023/03/10 09:08:49;;;;;;;3.53;1.20;;;;;;;;;;5074387;28;20532;-82
2023/03/10 09:11:19;;;;;;;5.35;0.90;;;;;;;;;;5057106;28;20061;-83
2023/03/10 09:13:47;;;;;;;3.75;0.95;;;;;;;;;;5074424;28;20055;-83
2023/03/10 09:16:14;;;;;;;2.83;0.80;;;;;;;;;;5056315;28;20049;-83
2023/03/10 09:18:42;;;;;;;3.42;0.98;;;;;;;;;;5056875;28;20080;-84
2023/03/10 09:21:11;;;;;;;3.85;0.90;;;;;;;;;;5074413;28;20045;-83
2023/03/10 09:23:40;;;;;;;2.75;0.80;;;;;;;;;;5074241;28;20056;-83
2023/03/10 09:26:07;;;;;;;1.70;0.52;;;;;;;;;;5074120;28;20052;-83
2023/03/10 09:28:37;;;;;;;4.30;1.00;;;;;;;;;;5074006;28;20527;-83
2023/03/10 09:31:05;;;;;;;3.88;0.77;;;;;;;;;;5056564;28;20507;-83
2023/03/10 09:33:33;;;;;;;6.20;1.20;;;;;;;;;;5056430;28;20062;-83
2023/03/10 09:36:02;;;;;;;4.32;0.95;;;;;;;;;;5074030;28;20058;-83
2023/03/10 09:38:34;;;;;;;;;;;;;;;;;;5057676;28;20055;-83
2023/03/10 09:41:23;;;;;;;3.88;0.85;;;;;;;;;;5056260;28;19924;-83
2023/03/10 09:44:11;;;;;;;5.25;1.10;;;;;;;;;;5056246;28;20427;-83
2023/03/10 09:46:53;;;;;;;4.32;0.88;;;;;;;;;;5073066;28;20613;-83
2023/03/10 09:49:32;;;;;;;2.42;0.80;;;;;;;;;;5056240;28;20123;-83
2023/03/10 09:52:02;;;;;;;2.42;0.70;;;;;;;;;;5056194;28;20048;-83
2023/03/10 09:54:39;;;;;;;4.53;1.50;;;;;;;;;;5055864;28;20075;-83
2023/03/10 09:57:16;;;;;;;5.15;1.52;;;;;;;;;;5056058;28;20048;-82
2023/03/10 09:59:45;;;;;;;2.97;1.10;;;;;;;;;;5055147;28;20052;-82
2023/03/10 10:02:21;;;;;;;3.83;1.05;;;;;;;;;;5056165;28;20052;-83
2023/03/10 10:04:52;;;;;;;2.95;0.90;;;;;;;;;;5055900;28;20510;-82
2023/03/10 10:07:21;;;;;;;6.45;1.33;;;;;;;;;;5056528;28;20133;-82
2023/03/10 10:10:00;;;;;;;3.85;1.08;;;;;;;;;;5073616;28;20049;-83
2023/03/10 10:12:28;;;;;;;4.57;1.05;;;;;;;;;;5055447;28;20054;-83
2023/03/10 10:14:57;;;;;;;3.03;1.05;;;;;;;;;;5055676;28;20044;-82
2023/03/10 10:17:28;;;;;;;6.03;1.00;;;;;;;;;;5072510;28;20047;-83
2023/03/10 10:19:56;;;;;;;2.78;1.15;;;;;;;;;;5073008;28;20402;-83
2023/03/10 10:22:28;;;;;;;3.78;0.90;;;;;;;;;;5055495;28;20052;-82
2023/03/10 10:25:02;;;;;;;4.68;0.93;;;;;;;;;;5073327;28;20048;-82
2023/03/10 10:27:32;;;;;;;3.25;0.98;;;;;;;;;;5055248;28;20519;-82
2023/03/10 10:30:19;;;;;;;1.67;1.05;;;;;;;;;;5055566;28;20067;-83
2023/03/10 10:32:54;;;;;;;4.35;0.98;;;;;;;;;;5054040;28;20060;-83
2023/03/10 10:35:23;;;;;;;4.18;1.23;;;;;;;;;;5055466;28;20052;-83
2023/03/10 10:38:05;;;;;;;6.65;1.13;;;;;;;;;;5073176;28;20055;-83
2023/03/10 10:40:45;;;;;;;2.92;0.88;;;;;;;;;;5073099;28;20484;-83
2023/03/10 10:43:16;;;;;;;3.03;0.90;;;;;;;;;;5055109;28;20060;-82
2023/03/10 10:45:43;;;;;;;5.97;0.85;;;;;;;;;;5055079;28;20052;-83
2023/03/10 10:48:29;;;;;;;2.65;0.98;;;;;;;;;;5072264;28;20098;-83
2023/03/10 10:50:56;;;;;;;3.10;0.88;;;;;;;;;;5055119;28;20051;-83
2023/03/10 10:53:25;;;;;;;3.67;1.02;;;;;;;;;;5054806;28;20058;-83
2023/03/10 10:55:59;;;;;;;3.17;0.70;;;;;;;;;;5055204;28;20051;-83
2023/03/10 10:58:31;;;;;;;3.20;1.15;;;;;;;;;;5055010;28;20066;-83
2023/03/10 11:00:59;;;;;;;3.13;1.00;;;;;;;;;;5073037;28;20051;-83
2023/03/10 11:03:27;;;;;;;3.97;1.05;;;;;;;;;;5072903;28;20044;-83
2023/03/10 11:05:54;;;;;;;3.20;0.85;;;;;;;;;;5073677;28;20090;-83
2023/03/10 11:08:33;;;;;;;3.60;1.13;;;;;;;;;;5092705;28;20054;-83
2023/03/10 11:11:16;;;;;;;2.88;0.90;;;;;;;;;;5075142;28;20063;-83
2023/03/10 11:13:58;;;;;;;2.60;0.80;;;;;;;;;;5092740;28;20048;-82
2023/03/10 11:16:31;;;;;;;2.78;1.13;;;;;;;;;;5074690;28;20480;-82
2023/03/10 11:19:13;;;;;;;1.77;0.88;;;;;;;;;;5075142;28;20080;-83
2023/03/10 11:21:44;;;;;;;2.92;0.90;;;;;;;;;;5075064;28;20050;-84
2023/03/10 11:24:15;;;;;;;3.58;1.25;;;;;;;;;;5093212;28;20052;-83
2023/03/10 11:27:03;;;;;;;1.98;0.70;;;;;;;;;;5092585;28;20054;-84
2023/03/10 11:29:49;;;;;;;3.72;0.88;;;;;;;;;;5092912;28;20094;-84
2023/03/10 11:32:35;;;;;;;2.97;0.75;;;;;;;;;;5074511;28;20563;-83
2023/03/10 11:35:12;;;;;;;5.15;2.00;;;;;;;;;;5074701;28;20044;-83
2023/03/10 11:37:43;;;;;;;2.28;1.20;;;;;;;;;;5074971;28;20048;-84
2023/03/10 11:40:18;;;;;;;3.33;1.27;;;;;;;;;;5093079;28;20051;-83
2023/03/10 11:42:49;;;;;;;1.48;0.63;;;;;;;;;;5074516;28;20048;-83
2023/03/10 11:45:22;;;;;;;3.17;0.93;;;;;;;;;;5074757;28;20040;-84
2023/03/10 11:48:08;;;;;;;1.40;0.65;;;;;;;;;;5074549;28;20506;-84
2023/03/10 11:50:49;;;;;;;1.95;0.52;;;;;;;;;;5092600;28;20056;-82
2023/03/10 11:53:26;;;;;;;2.03;0.70;;;;;;;;;;5074604;28;20406;-83
2023/03/10 11:55:54;;;;;;;0.80;0.50;;;;;;;;;;5074396;28;20076;-83
2023/03/10 11:58:28;;;;;;;1.70;0.60;;;;;;;;;;5092267;28;20048;-81
2023/03/10 12:00:55;;;;;;;3.25;0.30;;;;;;;;;;5074566;28;20044;-82
2023/03/10 12:03:49;;;;;;;3.55;0.73;;;;;;;;;;5074424;28;20052;-83
2023/03/10 12:06:19;;;;;;;0.43;0.32;;;;;;;;;;5044223;28;20056;-82
2023/03/10 12:08:49;;;;;;;0.90;0.30;;;;;;;;;;5074833;28;20084;-83
2023/03/10 12:11:19;;;;;;;1.48;0.38;;;;;;;;;;5076644;28;20044;-82
2023/03/10 12:13:48;;;;;;;2.58;0.25;;;;;;;;;;5096282;28;20048;-83
2023/03/10 12:16:21;;;;;;;1.27;0.20;;;;;;;;;;5095883;28;20044;-83
2023/03/10 12:18:49;;;;;;;0.30;0.15;;;;;;;;;;5095890;28;20078;-82
2023/03/10 12:21:30;;;;;;;1.23;0.20;;;;;;;;;;5077921;28;20047;-82
2023/03/10 12:23:59;;;;;;;1.92;0.17;;;;;;;;;;5077863;28;20044;-83
2023/03/10 12:26:43;;;;;;;0.35;0.10;;;;;;;;;;5077700;28;20050;-83
2023/03/10 12:29:23;;;;;;;0.73;0.20;;;;;;;;;;5096039;28;20125;-84
2023/03/10 12:31:54;;;;;;;0.70;0.20;;;;;;;;;;5078138;28;20052;-84
2023/03/10 12:34:22;;;;;;;2.17;0.30;;;;;;;;;;5077687;28;20056;-84
2023/03/10 12:37:09;;;;;;;1.45;0.10;;;;;;;;;;5095845;28;20491;-84
2023/03/10 12:39:38;;;;;;;0.20;0.20;;;;;;;;;;5077413;28;20067;-84
2023/03/10 12:42:25;;;;;;;0.45;0.20;;;;;;;;;;5078226;28;20131;-83
2023/03/10 12:44:55;;;;;;;1.45;0.10;;;;;;;;;;5077687;28;20048;-82
2023/03/10 12:47:28;;;;;;;0.10;0.10;;;;;;;;;;5077310;28;20047;-84
2023/03/10 12:50:04;;;;;;;0.53;0.20;;;;;;;;;;5077514;28;20044;-83
2023/03/10 12:52:38;;;;;;;0.90;0.10;;;;;;;;;;5095290;28;20056;-83
2023/03/10 12:55:18;;;;;;;0.90;0.17;;;;;;;;;;5077323;28;20048;-84
2023/03/10 12:58:04;;;;;;;0.25;0.20;;;;;;;;;;5095171;28;20052;-84
2023/03/10 13:00:43;;;;;;;4.63;0.80;;;;;;;;;;5076847;28;20127;-83
2023/03/10 13:03:10;;;;;;;1.15;0.52;;;;;;;;;;5077272;28;20044;-83
2023/03/10 13:05:42;;;;;;;0.40;0.40;;;;;;;;;;5077335;28;20044;-83
2023/03/10 13:08:15;;;;;;;1.05;0.30;;;;;;;;;;5094993;28;20103;-83
2023/03/10 13:10:44;;;;;;;0.77;0.50;;;;;;;;;;5094771;28;20040;-83
2023/03/10 13:13:13;;;;;;;1.98;0.40;;;;;;;;;;5076951;28;20052;-83
2023/03/10 13:15:41;;;;;;;0.68;0.40;;;;;;;;;;5076832;28;20044;-83
2023/03/10 13:18:18;;;;;;;1.50;0.65;;;;;;;;;;5095094;28;20055;-83
2023/03/10 13:20:46;;;;;;;0.88;0.40;;;;;;;;;;5076753;28;20094;-83
2023/03/10 13:23:19;;;;;;;0.85;0.28;;;;;;;;;;5075570;28;20045;-83
2023/03/10 13:25:56;;;;;;;0.28;0.20;;;;;;;;;;5076999;28;20399;-82
2023/03/10 13:28:25;;;;;;;2.65;0.60;;;;;;;;;;5076246;28;20431;-82
2023/03/10 13:31:05;;;;;;;0.82;0.43;;;;;;;;;;5076700;28;20075;-81
2023/03/10 13:33:32;;;;;;;1.05;0.75;;;;;;;;;;5094335;28;20058;-82
2023/03/10 13:36:24;;;;;;;0.60;0.47;;;;;;;;;;5093991;28;20055;-83
2023/03/10 13:38:52;;;;;;;0.50;0.50;;;;;;;;;;5076645;28;20052;-84
2023/03/10 13:41:19;;;;;;;0.45;0.10;;;;;;;;;;5076356;28;20044;-84
2023/03/10 13:43:49;;;;;;;0.57;0.10;;;;;;;;;;5094490;28;20044;-83
2023/03/10 13:46:27;;;;;;;1.05;0.40;;;;;;;;;;5076296;28;20519;-83
2023/03/10 13:48:56;;;;;;;2.10;0.40;;;;;;;;;;5094357;28;20130;-82
2023/03/10 13:51:27;;;;;;;0.43;0.20;;;;;;;;;;5076240;28;20048;-83
2023/03/10 13:54:10;;;;;;;1.70;0.20;;;;;;;;;;5076901;28;20083;-84
2023/03/10 13:56:40;;;;;;;0.32;0.15;;;;;;;;;;5075973;28;20044;-83
2023/03/10 13:59:13;;;;;;;0.30;0.30;;;;;;;;;;5075936;28;20555;-83
2023/03/10 14:01:44;;;;;;;0.60;0.30;;;;;;;;;;5076009;28;20052;-84
2023/03/10 14:04:15;;;;;;;1.00;0.20;;;;;;;;;;5076218;28;20048;-83
2023/03/10 14:06:43;;;;;;;0.30;0.20;;;;;;;;;;5076224;28;20051;-83
2023/03/10 14:09:23;;;;;;;0.63;0.20;;;;;;;;;;5093677;28;20571;-83
2023/03/10 14:11:51;;;;;;;0.25;0.20;;;;;;;;;;5076012;28;20044;-83
2023/03/10 14:14:32;;;;;;;1.15;0.30;;;;;;;;;;5076299;28;20072;-84
2023/03/10 14:17:00;;;;;;;1.75;0.15;;;;;;;;;;5075521;28;20818;-84
2023/03/10 14:19:38;;;;;;;0.30;0.22;;;;;;;;;;5093263;28;20471;-84
2023/03/10 14:22:27;;;;;;;0.70;0.50;;;;;;;;;;5093586;28;20058;-83
2023/03/10 14:24:55;;;;;;;0.55;0.50;;;;;;;;;;5075715;28;20127;-82
2023/03/10 14:27:23;;;;;;;0.73;0.60;;;;;;;;;;5093556;28;20052;-83
2023/03/10 14:29:51;;;;;;;1.20;0.32;;;;;;;;;;5093577;28;20126;-83
2023/03/10 14:32:19;;;;;;;0.73;0.20;;;;;;;;;;5093030;28;20144;-83
2023/03/10 14:34:47;;;;;;;0.75;0.30;;;;;;;;;;5093100;28;20047;-82
2023/03/10 14:37:14;;;;;;;0.80;0.35;;;;;;;;;;5091738;28;20467;-83
2023/03/10 14:39:42;;;;;;;0.75;0.30;;;;;;;;;;5093497;28;20420;-84
2023/03/10 14:42:17;;;;;;;0.60;0.30;;;;;;;;;;5075427;28;20403;-83
2023/03/10 14:44:44;;;;;;;1.02;0.30;;;;;;;;;;5075262;28;20468;-83
2023/03/10 14:47:14;;;;;;;0.85;0.40;;;;;;;;;;5075827;28;20046;-84
2023/03/10 14:49:42;;;;;;;1.35;0.20;;;;;;;;;;5093153;28;20487;-82
2023/03/10 14:52:16;;;;;;;1.42;0.20;;;;;;;;;;5075381;28;20044;-83
2023/03/10 14:54:44;;;;;;;1.42;0.30;;;;;;;;;;5093057;28;20483;-83
2023/03/10 14:57:12;;;;;;;1.55;0.25;;;;;;;;;;5093016;28;20511;-83
2023/03/10 14:59:39;;;;;;;0.35;0.35;;;;;;;;;;5075256;28;20052;-84